KSGU

St. George Municipal Airport

Airport
ICAO code
KSGU
Summary
ICAO Region
NAM
ICAO Territory
Location

St. George, Utah,

Coordinates
37° 2' 15" N , 113° 30' 13" W
KCC
Airport WX
Mountain Waves
Metar
KSGU 142056Z AUTO 21006KT 10SM CLR 37/M01 A2988 RMK AO2 SLP073 T03721011 58023

Description

St. George Municipal Airport is a public use airport located 9 km southeast of the central business district of St. George, a city in Washington County, Utah.

Climatology

Hot Desert Climate (Köppen climate classification BWh) - Hot desert climates are typically found in the subtropics where there is unbroken sunshine for the whole year due to the stable descending air and high pressure, little or no precipitation. Maximum temperatures of 40°C to 45°C are not uncommon, particularly during the warmer months of the year. During colder periods of the year, night-time temperatures can drop to freezing or below due to the exceptional radiation loss under the clear skies. However, very rarely do temperatures drop far below freezing.

Runways

Designator Length Width Surface Rops
16/34 2014 30 ASP Yes/Yes

Airport map

Aerial View

SKYbrary Partners:

Safety knowledge contributed by: